createdAt,value
2023-05-23T00:01:33.689Z,42.67
2023-05-23T00:04:01.998Z,40.77
2023-05-23T00:06:28.958Z,44.76
2023-05-23T00:08:56.944Z,43.67
2023-05-23T00:11:27.210Z,47.61
2023-05-23T00:13:54.278Z,48.28
2023-05-23T00:16:22.830Z,52.50
2023-05-23T00:18:50.388Z,54.85
2023-05-23T00:21:17.384Z,49.46
2023-05-23T00:23:44.239Z,51.06
2023-05-23T00:26:11.475Z,52.75
2023-05-23T00:28:42.855Z,52.76
2023-05-23T00:31:09.812Z,48.24
2023-05-23T00:33:37.182Z,52.57
2023-05-23T00:36:04.076Z,50.82
2023-05-23T00:38:31.502Z,54.84
2023-05-23T00:40:58.706Z,74.33
2023-05-23T00:43:25.806Z,74.65
2023-05-23T00:45:52.850Z,54.58
2023-05-23T00:48:20.004Z,65.27
2023-05-23T00:50:47.239Z,62.76
2023-05-23T00:53:14.303Z,66.45
2023-05-23T00:55:41.557Z,57.45
2023-05-23T00:58:09.088Z,55.20
2023-05-23T01:00:38.612Z,62.40
2023-05-23T01:03:05.537Z,55.61
2023-05-23T01:05:32.544Z,61.75
2023-05-23T01:07:59.862Z,58.38
2023-05-23T01:10:28.382Z,61.14
2023-05-23T01:12:58.244Z,55.31
2023-05-23T01:15:34.317Z,54.46
2023-05-23T01:18:10.009Z,53.07
2023-05-23T01:20:45.880Z,57.60
2023-05-23T01:23:14.348Z,53.19
2023-05-23T01:26:19.700Z,55.97
2023-05-23T01:28:50.187Z,55.61
2023-05-23T01:31:18.769Z,57.42
2023-05-23T01:33:46.699Z,53.05
2023-05-23T01:36:15.354Z,53.55
2023-05-23T01:38:43.035Z,49.19
2023-05-23T01:41:10.059Z,49.79
2023-05-23T01:43:38.438Z,49.26
2023-05-23T01:46:07.699Z,56.58
2023-05-23T01:48:35.465Z,55.10
2023-05-23T01:51:02.564Z,63.18
2023-05-23T01:53:31.480Z,59.61
2023-05-23T01:55:58.842Z,53.78
2023-05-23T01:58:25.993Z,55.87
2023-05-23T02:00:53.062Z,54.58
2023-05-23T02:03:19.971Z,51.80
2023-05-23T02:05:47.024Z,52.40
2023-05-23T02:08:13.956Z,57.92
2023-05-23T02:10:40.910Z,55.16
2023-05-23T02:13:07.827Z,51.67
2023-05-23T02:15:34.699Z,48.27
2023-05-23T02:18:03.232Z,51.54
2023-05-23T02:20:31.322Z,47.67
2023-05-23T02:22:58.209Z,49.00
2023-05-23T02:25:25.086Z,47.43
2023-05-23T02:27:51.973Z,50.11
2023-05-23T02:30:19.027Z,46.73
2023-05-23T02:32:46.402Z,44.34
2023-05-23T02:35:13.496Z,45.43
2023-05-23T02:37:41.092Z,50.36
2023-05-23T02:40:08.916Z,48.69
2023-05-23T02:42:36.513Z,49.66
2023-05-23T02:45:04.198Z,51.81
2023-05-23T02:47:31.377Z,54.19
2023-05-23T02:49:58.269Z,50.70
2023-05-23T02:52:25.747Z,51.39
2023-05-23T02:54:53.304Z,47.68
2023-05-23T02:57:20.539Z,50.83
2023-05-23T02:59:47.445Z,57.26
2023-05-23T03:02:14.524Z,51.18
2023-05-23T03:04:41.608Z,49.24
2023-05-23T03:07:17.177Z,50.30
2023-05-23T03:09:54.328Z,45.85
2023-05-23T03:12:21.327Z,51.89
2023-05-23T03:14:48.193Z,55.64
2023-05-23T03:17:15.032Z,51.73
2023-05-23T03:19:41.892Z,55.36
2023-05-23T03:22:08.892Z,55.06
2023-05-23T03:24:35.704Z,51.67
2023-05-23T03:27:03.119Z,55.56
2023-05-23T03:29:30.092Z,52.10
2023-05-23T03:31:57.659Z,52.45
2023-05-23T03:34:26.403Z,51.19
2023-05-23T03:36:53.411Z,49.94
2023-05-23T03:39:20.508Z,48.24
2023-05-23T03:41:47.398Z,49.58
2023-05-23T03:44:14.799Z,56.68
2023-05-23T03:46:42.136Z,50.12
2023-05-23T03:49:09.624Z,49.24
2023-05-23T03:51:36.533Z,50.31
2023-05-23T03:54:03.509Z,48.58
2023-05-23T03:56:30.352Z,53.68
2023-05-23T03:58:57.178Z,55.13
2023-05-23T04:01:24.000Z,55.15
2023-05-23T04:03:51.502Z,56.01
2023-05-23T04:06:20.565Z,54.23
2023-05-23T04:08:48.468Z,50.47
2023-05-23T04:11:15.774Z,48.01
2023-05-23T04:13:42.873Z,51.24
2023-05-23T04:16:11.626Z,51.68
2023-05-23T04:18:39.322Z,49.54
2023-05-23T04:21:07.486Z,53.60
2023-05-23T04:23:38.781Z,56.20
2023-05-23T04:26:07.241Z,56.04
2023-05-23T04:28:36.153Z,50.15
2023-05-23T04:31:03.703Z,59.09
2023-05-23T04:33:34.288Z,52.17
2023-05-23T04:36:03.265Z,48.19
2023-05-23T04:38:32.144Z,60.33
2023-05-23T04:41:00.068Z,50.64
2023-05-23T04:43:46.153Z,53.24
2023-05-23T04:46:26.576Z,54.19
2023-05-23T04:49:22.933Z,53.71
2023-05-23T04:51:51.130Z,47.48
2023-05-23T04:54:28.863Z,53.45
2023-05-23T04:56:58.474Z,52.75
2023-05-23T04:59:26.842Z,58.32
2023-05-23T05:01:53.825Z,52.53
2023-05-23T05:04:22.274Z,48.64
2023-05-23T05:06:50.660Z,48.34
2023-05-23T05:09:19.102Z,54.83
2023-05-23T05:11:46.706Z,65.74
2023-05-23T05:14:14.571Z,56.39
2023-05-23T05:16:42.863Z,58.35
2023-05-23T05:19:10.385Z,59.56
2023-05-23T05:21:37.485Z,53.63
2023-05-23T05:24:05.549Z,49.42
2023-05-23T05:26:32.549Z,50.34
2023-05-23T05:28:59.824Z,55.91
2023-05-23T05:31:27.671Z,53.96
2023-05-23T05:33:55.525Z,53.46
2023-05-23T05:36:22.460Z,55.69
2023-05-23T05:38:51.254Z,57.15
2023-05-23T05:41:20.529Z,49.29
2023-05-23T05:43:50.881Z,50.02
2023-05-23T05:46:18.682Z,55.81
2023-05-23T05:48:46.531Z,50.49
2023-05-23T05:51:17.606Z,47.60
2023-05-23T05:53:44.789Z,45.77
2023-05-23T05:56:13.636Z,44.75
2023-05-23T05:58:41.108Z,52.98
2023-05-23T06:01:10.107Z,48.45
2023-05-23T06:03:37.688Z,44.28
2023-05-23T06:06:04.949Z,50.50
2023-05-23T06:08:31.999Z,48.41
2023-05-23T06:10:58.966Z,45.65
2023-05-23T06:13:26.814Z,46.57
2023-05-23T06:15:54.532Z,46.71
2023-05-23T06:18:23.839Z,47.45
2023-05-23T06:20:51.655Z,44.93
2023-05-23T06:23:20.676Z,48.33
2023-05-23T06:25:48.116Z,42.99
2023-05-23T06:28:15.092Z,41.40
2023-05-23T06:30:42.383Z,47.78
2023-05-23T06:33:09.424Z,46.62
2023-05-23T06:35:36.417Z,49.99
2023-05-23T06:38:03.374Z,42.30
2023-05-23T06:40:30.465Z,42.89
2023-05-23T06:42:57.429Z,45.18
2023-05-23T06:45:35.122Z,43.90
2023-05-23T06:48:02.762Z,43.13
2023-05-23T06:50:31.473Z,40.57
2023-05-23T06:52:58.493Z,43.05
2023-05-23T06:55:25.572Z,42.73
2023-05-23T06:57:52.648Z,45.19
2023-05-23T07:00:21.722Z,47.26
2023-05-23T07:03:03.646Z,41.34
2023-05-23T07:05:31.051Z,45.17
2023-05-23T07:07:58.184Z,39.14
2023-05-23T07:10:26.448Z,37.17
2023-05-23T07:12:59.554Z,38.40
2023-05-23T07:15:28.811Z,40.34
2023-05-23T07:18:05.877Z,41.91
2023-05-23T07:20:34.301Z,40.92
2023-05-23T07:23:10.131Z,46.27
2023-05-23T07:25:38.963Z,41.46
2023-05-23T07:28:11.888Z,44.39
2023-05-23T07:30:39.647Z,45.74
2023-05-23T07:33:09.082Z,42.33
2023-05-23T07:35:36.558Z,43.92
2023-05-23T07:38:05.365Z,43.01
2023-05-23T07:40:32.532Z,41.65
2023-05-23T07:43:00.275Z,39.37
2023-05-23T07:45:27.378Z,39.13
2023-05-23T07:47:54.532Z,38.71
2023-05-23T07:50:21.945Z,39.49
2023-05-23T07:52:52.035Z,38.99
2023-05-23T07:55:25.062Z,36.01
2023-05-23T07:57:56.496Z,37.25
2023-05-23T08:00:24.594Z,35.94
2023-05-23T08:02:57.132Z,36.48
2023-05-23T08:05:30.774Z,37.50
2023-05-23T08:07:58.406Z,37.01
2023-05-23T08:10:28.340Z,36.91
2023-05-23T08:13:01.024Z,37.40
2023-05-23T08:15:33.830Z,38.99
2023-05-23T08:18:09.070Z,36.64
2023-05-23T08:20:36.465Z,34.75
2023-05-23T08:23:03.399Z,35.65
2023-05-23T08:25:32.487Z,37.55
2023-05-23T08:28:01.515Z,38.26
2023-05-23T08:30:39.200Z,36.87
2023-05-23T08:33:07.283Z,37.51
2023-05-23T08:35:36.836Z,37.22
2023-05-23T08:38:09.959Z,35.15
2023-05-23T08:40:50.729Z,40.43
2023-05-23T08:43:19.776Z,39.90
2023-05-23T08:45:49.145Z,39.98
2023-05-23T08:48:20.131Z,40.52
2023-05-23T08:50:53.176Z,38.86
2023-05-23T08:53:26.643Z,37.36
2023-05-23T08:56:02.929Z,38.08
2023-05-23T08:58:42.259Z,35.90
2023-05-23T09:01:11.070Z,37.60
2023-05-23T09:03:39.069Z,40.86
2023-05-23T09:06:15.954Z,37.87
2023-05-23T09:08:46.060Z,43.82
2023-05-23T09:11:14.826Z,45.49
2023-05-23T09:13:44.367Z,37.67
2023-05-23T09:16:17.887Z,36.38
2023-05-23T09:18:56.808Z,36.66
2023-05-23T09:21:25.885Z,34.39
2023-05-23T09:24:02.176Z,33.65
2023-05-23T09:26:29.108Z,34.62
2023-05-23T09:28:59.842Z,36.75
2023-05-23T09:31:30.277Z,37.95
2023-05-23T09:33:58.611Z,34.80
2023-05-23T09:36:30.219Z,35.20
2023-05-23T09:38:57.443Z,35.42
2023-05-23T09:41:25.269Z,36.27
2023-05-23T09:43:56.313Z,35.21
2023-05-23T09:46:23.433Z,38.17
2023-05-23T09:48:52.407Z,35.93
2023-05-23T09:51:21.568Z,36.57
2023-05-23T09:53:53.047Z,35.43
2023-05-23T09:56:20.373Z,32.96
2023-05-23T09:58:49.155Z,35.05
2023-05-23T10:01:16.904Z,36.21
2023-05-23T10:03:56.674Z,36.66
2023-05-23T10:06:28.913Z,33.54
2023-05-23T10:09:04.936Z,35.59
2023-05-23T10:11:34.926Z,35.17
2023-05-23T10:14:06.371Z,34.00
2023-05-23T10:16:40.052Z,35.45
2023-05-23T10:19:20.916Z,35.96
2023-05-23T10:21:52.514Z,34.38
2023-05-23T10:24:21.022Z,34.34
2023-05-23T10:26:48.848Z,34.66
2023-05-23T10:29:15.911Z,34.48
2023-05-23T10:31:44.029Z,35.05
2023-05-23T10:34:34.242Z,35.10
2023-05-23T10:37:04.345Z,35.63
2023-05-23T10:39:47.996Z,33.61
2023-05-23T10:42:27.741Z,32.38
2023-05-23T10:45:14.692Z,35.73
2023-05-23T10:47:41.748Z,33.05
2023-05-23T10:50:13.790Z,33.86
2023-05-23T10:52:42.383Z,32.60
2023-05-23T10:55:19.677Z,32.98
2023-05-23T10:57:47.179Z,35.06
2023-05-23T11:00:16.342Z,32.87
2023-05-23T11:03:00.524Z,31.04
2023-05-23T11:05:31.902Z,31.51
2023-05-23T11:08:13.979Z,31.39
2023-05-23T11:11:00.275Z,34.65
2023-05-23T11:13:57.445Z,33.13
2023-05-23T11:16:28.517Z,34.81
2023-05-23T11:19:18.781Z,37.05
2023-05-23T11:21:47.079Z,33.92
2023-05-23T11:24:14.004Z,33.77
2023-05-23T11:26:53.518Z,33.67
2023-05-23T11:29:21.642Z,33.70
2023-05-23T11:31:48.648Z,32.90
2023-05-23T11:34:16.016Z,31.71
2023-05-23T11:36:42.901Z,33.15
2023-05-23T11:39:10.437Z,33.76
2023-05-23T11:41:37.365Z,32.10
2023-05-23T11:44:11.643Z,31.59
2023-05-23T11:46:39.625Z,31.40
2023-05-23T11:49:12.874Z,31.86
2023-05-23T11:51:39.957Z,33.29
2023-05-23T11:54:07.632Z,29.57
2023-05-23T11:56:39.660Z,31.62
2023-05-23T11:59:06.603Z,30.79
2023-05-23T12:01:34.730Z,30.02
2023-05-23T12:04:11.891Z,30.77
2023-05-23T12:06:42.608Z,31.66
2023-05-23T12:09:12.737Z,32.14
2023-05-23T12:11:41.371Z,30.66
2023-05-23T12:14:09.685Z,32.08
2023-05-23T12:16:37.033Z,32.77
2023-05-23T12:19:06.602Z,30.22
2023-05-23T12:21:45.764Z,29.71
2023-05-23T12:24:17.785Z,30.34
2023-05-23T12:27:02.095Z,32.06
2023-05-23T12:29:35.827Z,30.24
2023-05-23T12:32:04.447Z,29.70
2023-05-23T12:34:31.648Z,29.14
2023-05-23T12:37:15.005Z,28.92
2023-05-23T12:39:46.324Z,30.39
2023-05-23T12:42:13.453Z,29.42
2023-05-23T12:44:42.208Z,28.10
2023-05-23T12:47:09.332Z,29.51
2023-05-23T12:49:37.158Z,30.00
2023-05-23T12:52:06.480Z,28.50
2023-05-23T12:54:33.491Z,29.60
2023-05-23T12:57:00.427Z,31.47
2023-05-23T12:59:27.297Z,30.43
2023-05-23T13:01:54.957Z,31.08
2023-05-23T13:04:22.892Z,32.35
2023-05-23T13:06:49.958Z,30.81
2023-05-23T13:09:17.073Z,29.39
2023-05-23T13:11:44.410Z,28.40
2023-05-23T13:14:11.437Z,29.00
2023-05-23T13:16:39.423Z,30.51
2023-05-23T13:19:06.644Z,29.47
2023-05-23T13:21:33.629Z,28.70
2023-05-23T13:24:00.574Z,28.58
2023-05-23T13:26:27.597Z,28.91
2023-05-23T13:28:54.572Z,25.85
2023-05-23T13:31:21.847Z,26.88
2023-05-23T13:33:49.025Z,27.03
2023-05-23T13:36:16.097Z,27.56
2023-05-23T13:38:43.161Z,28.68
2023-05-23T13:41:10.414Z,27.77
2023-05-23T13:43:37.499Z,27.40
2023-05-23T13:46:04.599Z,27.48
2023-05-23T13:48:31.708Z,28.70
2023-05-23T13:50:58.937Z,28.78
2023-05-23T13:53:26.073Z,29.63
2023-05-23T13:55:53.263Z,28.25
2023-05-23T13:58:20.571Z,29.02
2023-05-23T14:00:47.635Z,26.40
2023-05-23T14:03:15.883Z,25.86
2023-05-23T14:05:42.956Z,27.04
2023-05-23T14:08:11.281Z,27.43
2023-05-23T14:10:38.227Z,28.19
2023-05-23T14:13:06.973Z,26.95
2023-05-23T14:15:34.871Z,27.22
2023-05-23T14:18:02.142Z,27.73
2023-05-23T14:20:29.934Z,27.44
2023-05-23T14:22:56.755Z,26.37
2023-05-23T14:25:23.917Z,25.78
2023-05-23T14:27:51.345Z,26.14
2023-05-23T14:30:18.509Z,26.40
2023-05-23T14:32:45.499Z,26.86
2023-05-23T14:35:12.727Z,25.75
2023-05-23T14:37:39.896Z,27.11
2023-05-23T14:40:08.173Z,25.54
2023-05-23T14:42:35.025Z,25.50
2023-05-23T14:45:02.259Z,26.07
2023-05-23T14:47:29.582Z,27.34
2023-05-23T14:49:56.698Z,25.89
2023-05-23T14:52:23.595Z,26.49
2023-05-23T14:54:50.875Z,28.20
2023-05-23T14:57:18.181Z,27.12
2023-05-23T14:59:46.617Z,26.73
2023-05-23T15:02:13.802Z,26.05
2023-05-23T15:04:41.016Z,27.40
2023-05-23T15:07:08.068Z,26.53
2023-05-23T15:09:35.068Z,26.28
2023-05-23T15:12:02.113Z,25.10
2023-05-23T15:14:33.267Z,24.97
2023-05-23T15:17:07.727Z,25.12
2023-05-23T15:19:39.174Z,25.84
2023-05-23T15:22:06.235Z,25.02
2023-05-23T15:24:34.956Z,25.83
2023-05-23T15:27:15.824Z,25.67
2023-05-23T15:29:46.263Z,24.53
2023-05-23T15:32:13.320Z,25.10
2023-05-23T15:34:40.571Z,26.02
2023-05-23T15:37:07.610Z,27.43
2023-05-23T15:39:34.481Z,25.70
2023-05-23T15:42:04.654Z,26.88
2023-05-23T15:44:34.110Z,26.69
2023-05-23T15:47:01.147Z,25.25
2023-05-23T15:49:28.406Z,26.44
2023-05-23T15:51:55.630Z,24.69
2023-05-23T15:54:23.059Z,25.74
2023-05-23T15:56:49.981Z,25.74
2023-05-23T15:59:17.178Z,27.29
2023-05-23T16:01:44.593Z,25.98
2023-05-23T16:04:11.763Z,26.17
2023-05-23T16:06:39.565Z,25.61
2023-05-23T16:09:08.446Z,25.47
2023-05-23T16:11:35.573Z,24.56
2023-05-23T16:14:02.499Z,24.93
2023-05-23T16:16:29.536Z,24.75
2023-05-23T16:18:56.616Z,25.75
2023-05-23T16:21:23.906Z,26.55
2023-05-23T16:23:51.489Z,26.30
2023-05-23T16:26:19.228Z,27.86
2023-05-23T16:28:46.364Z,26.62
2023-05-23T16:31:17.649Z,27.66
2023-05-23T16:33:45.135Z,27.42
2023-05-23T16:36:12.195Z,28.46
2023-05-23T16:38:39.173Z,25.95
2023-05-23T16:41:06.114Z,27.26
2023-05-23T16:43:34.168Z,26.49
2023-05-23T16:46:01.247Z,25.76
2023-05-23T16:48:31.331Z,27.26
2023-05-23T16:50:58.390Z,26.84
2023-05-23T16:53:25.408Z,26.28
2023-05-23T16:55:52.464Z,27.25
2023-05-23T16:58:21.147Z,28.54
2023-05-23T17:00:48.909Z,28.43
2023-05-23T17:03:16.111Z,26.21
2023-05-23T17:05:43.418Z,25.68
2023-05-23T17:08:10.729Z,26.09
2023-05-23T17:10:37.958Z,27.45
2023-05-23T17:13:04.901Z,25.68
2023-05-23T17:15:32.000Z,26.97
2023-05-23T17:17:59.019Z,25.79
2023-05-23T17:20:26.948Z,24.52
2023-05-23T17:22:54.811Z,24.93
2023-05-23T17:25:22.273Z,26.65
2023-05-23T17:27:49.399Z,26.96
2023-05-23T17:30:18.667Z,26.90
2023-05-23T17:32:49.493Z,26.14
2023-05-23T17:35:16.467Z,26.87
2023-05-23T17:37:44.959Z,26.05
2023-05-23T17:40:13.246Z,26.29
2023-05-23T17:42:41.343Z,27.90
2023-05-23T17:45:10.029Z,26.01
2023-05-23T17:47:37.158Z,27.05
2023-05-23T17:50:05.255Z,29.30
2023-05-23T17:52:32.664Z,28.31
2023-05-23T17:54:59.978Z,30.10
2023-05-23T17:57:28.319Z,26.16
2023-05-23T17:59:55.229Z,26.13
2023-05-23T18:02:22.192Z,26.93
2023-05-23T18:04:49.292Z,28.06
2023-05-23T18:07:19.478Z,27.19
2023-05-23T18:09:47.347Z,27.67
2023-05-23T18:12:14.960Z,29.03
2023-05-23T18:14:42.336Z,27.63
2023-05-23T18:17:09.977Z,29.78
2023-05-23T18:19:37.527Z,29.14
2023-05-23T18:22:04.831Z,28.43
2023-05-23T18:24:31.739Z,28.06
2023-05-23T18:26:58.719Z,27.13
2023-05-23T18:29:26.340Z,27.96
2023-05-23T18:31:53.206Z,28.27
2023-05-23T18:34:21.483Z,28.14
2023-05-23T18:36:48.648Z,28.36
2023-05-23T18:39:16.443Z,27.56
2023-05-23T18:41:43.355Z,28.96
2023-05-23T18:44:11.661Z,27.69
2023-05-23T18:46:38.543Z,28.19
2023-05-23T18:49:06.054Z,29.57
2023-05-23T18:51:33.967Z,28.17
2023-05-23T18:54:01.139Z,30.57
2023-05-23T18:56:28.010Z,27.11
2023-05-23T18:58:55.037Z,28.86
2023-05-23T19:01:22.204Z,27.99
2023-05-23T19:03:49.297Z,27.60
2023-05-23T19:06:16.789Z,29.24
2023-05-23T19:08:43.762Z,29.41
2023-05-23T19:11:10.891Z,29.09
2023-05-23T19:13:37.878Z,29.05
2023-05-23T19:16:05.074Z,29.76
2023-05-23T19:18:32.230Z,28.19
2023-05-23T19:20:59.182Z,27.89
2023-05-23T19:23:26.668Z,26.47
2023-05-23T19:25:53.633Z,27.10
2023-05-23T19:28:20.558Z,27.37
2023-05-23T19:30:47.551Z,30.07
2023-05-23T19:33:14.734Z,31.84
2023-05-23T19:35:43.105Z,29.51
2023-05-23T19:38:10.115Z,29.93
2023-05-23T19:40:37.082Z,28.96
2023-05-23T19:43:04.137Z,29.27
2023-05-23T19:45:31.093Z,29.97
2023-05-23T19:47:58.164Z,28.33
2023-05-23T19:50:25.442Z,27.86
2023-05-23T19:52:52.458Z,29.52
2023-05-23T19:55:19.587Z,28.67
2023-05-23T19:57:46.564Z,28.94
2023-05-23T20:00:14.917Z,27.72
2023-05-23T20:02:42.679Z,27.36
2023-05-23T20:05:09.859Z,28.97
2023-05-23T20:07:36.808Z,28.98
2023-05-23T20:10:04.338Z,28.23
2023-05-23T20:12:31.344Z,28.05
2023-05-23T20:14:58.355Z,27.21
2023-05-23T20:17:25.586Z,27.84
2023-05-23T20:19:52.666Z,27.27
2023-05-23T20:22:19.561Z,27.78
2023-05-23T20:24:46.919Z,28.03
2023-05-23T20:27:14.068Z,27.07
2023-05-23T20:29:41.326Z,27.34
2023-05-23T20:32:08.095Z,28.74
2023-05-23T20:34:34.947Z,28.39
2023-05-23T20:37:03.520Z,27.73
2023-05-23T20:39:30.529Z,27.82
2023-05-23T20:41:57.852Z,28.00
2023-05-23T20:44:24.769Z,26.82
2023-05-23T20:46:51.686Z,27.64
2023-05-23T20:49:18.832Z,26.34
2023-05-23T20:51:45.715Z,27.92
2023-05-23T20:54:12.894Z,27.74
2023-05-23T20:56:39.962Z,27.09
2023-05-23T20:59:07.084Z,27.03
2023-05-23T21:01:34.098Z,28.89
2023-05-23T21:04:01.183Z,28.17
2023-05-23T21:06:28.221Z,27.60
2023-05-23T21:08:55.163Z,27.17
2023-05-23T21:11:23.316Z,27.75
2023-05-23T21:13:50.382Z,28.20
2023-05-23T21:16:17.280Z,27.32
2023-05-23T21:18:44.290Z,28.61
2023-05-23T21:21:11.192Z,29.40
2023-05-23T21:23:38.121Z,27.52
2023-05-23T21:26:05.117Z,28.15
2023-05-23T21:28:32.226Z,28.93
2023-05-23T21:30:59.897Z,27.21
2023-05-23T21:33:26.846Z,27.21
2023-05-23T21:35:53.838Z,27.05
2023-05-23T21:38:20.892Z,27.03
2023-05-23T21:40:47.913Z,27.78
2023-05-23T21:43:14.738Z,28.33
2023-05-23T21:45:41.869Z,28.41
2023-05-23T21:48:08.687Z,28.42
2023-05-23T21:50:35.755Z,28.42
2023-05-23T21:53:02.651Z,28.82
2023-05-23T21:55:30.464Z,28.78
2023-05-23T21:57:57.288Z,28.29
2023-05-23T22:00:24.188Z,27.94
2023-05-23T22:02:51.778Z,28.23
2023-05-23T22:05:18.708Z,28.83
2023-05-23T22:07:45.974Z,28.69
2023-05-23T22:10:13.160Z,28.34
2023-05-23T22:12:40.089Z,28.08
2023-05-23T22:15:08.349Z,27.79
2023-05-23T22:17:35.473Z,27.39
2023-05-23T22:20:05.303Z,26.96
2023-05-23T22:22:32.314Z,27.30
2023-05-23T22:24:59.212Z,27.81
2023-05-23T22:27:26.222Z,27.47
2023-05-23T22:29:53.093Z,27.69
2023-05-23T22:32:20.094Z,27.57
2023-05-23T22:34:47.045Z,28.20
2023-05-23T22:37:15.732Z,27.19
2023-05-23T22:39:42.758Z,27.86
2023-05-23T22:42:09.571Z,27.31
2023-05-23T22:44:36.724Z,27.17
2023-05-23T22:47:03.966Z,27.21
2023-05-23T22:49:31.177Z,27.94
2023-05-23T22:51:59.331Z,28.89
2023-05-23T22:54:26.258Z,28.82
2023-05-23T22:56:53.314Z,28.90
2023-05-23T22:59:20.272Z,28.36
2023-05-23T23:01:47.337Z,27.91
2023-05-23T23:04:14.913Z,27.93
2023-05-23T23:06:43.232Z,27.48
2023-05-23T23:09:10.297Z,28.68
2023-05-23T23:11:37.201Z,28.24
2023-05-23T23:14:04.050Z,27.99
2023-05-23T23:16:30.982Z,27.74
2023-05-23T23:18:58.846Z,27.69
2023-05-23T23:21:25.837Z,29.74
2023-05-23T23:23:52.793Z,28.43
2023-05-23T23:26:19.737Z,29.21
2023-05-23T23:28:46.670Z,28.40
2023-05-23T23:31:13.596Z,27.79
2023-05-23T23:33:40.555Z,28.90
2023-05-23T23:36:07.641Z,29.22
2023-05-23T23:38:34.648Z,29.70
2023-05-23T23:41:01.546Z,28.92
2023-05-23T23:43:28.490Z,29.60
2023-05-23T23:45:55.383Z,29.85
2023-05-23T23:48:22.254Z,29.00
2023-05-23T23:50:49.249Z,27.96
2023-05-23T23:53:16.919Z,27.89
2023-05-23T23:55:43.897Z,28.37
2023-05-23T23:58:10.843Z,28.22
